Time;durP1;ratioP1;P1;durP2;ratioP2;P2;SDS_P1;SDS_P2;PMS_P1;PMS_P2;Temp;Humidity;BMP_temperature;BMP_pressure;BME280_temperature;BME280_humidity;BME280_pressure;Samples;Min_cycle;Max_cycle;Signal;HPM_P1;HPM_P2
2023/03/30 00:01:17;;;;;;;7.63;6.83;;;;;;;9.49;91.64;100753.72;6189092;28;20233;-71
2023/03/30 00:04:41;;;;;;;8.53;7.70;;;;;;;9.58;91.55;100750.94;6160708;28;20238;-71
2023/03/30 00:08:02;;;;;;;9.20;7.70;;;;;;;9.56;91.88;100755.56;6182090;28;20336;-71
2023/03/30 00:11:23;;;;;;;8.57;6.50;;;;;;;9.57;91.98;100751.94;6201987;28;20224;-72
2023/03/30 00:14:45;;;;;;;8.20;7.50;;;;;;;9.60;91.51;100738.44;6185236;28;20654;-71
2023/03/30 00:18:07;;;;;;;7.27;6.57;;;;;;;9.64;91.79;100722.28;6185611;28;20615;-71
2023/03/30 00:21:29;;;;;;;8.40;6.97;;;;;;;9.56;91.71;100723.94;6184890;28;21770;-70
2023/03/30 00:24:50;;;;;;;7.27;5.93;;;;;;;9.60;91.88;100722.63;6174463;28;20229;-70
2023/03/30 00:28:11;;;;;;;6.30;5.70;;;;;;;9.64;91.62;100717.84;6192979;28;20320;-71
2023/03/30 00:31:32;;;;;;;9.57;8.67;;;;;;;9.65;91.88;100713.41;6185972;28;20863;-71
2023/03/30 00:34:54;;;;;;;7.30;6.60;;;;;;;9.57;92.37;100711.56;6194978;28;20237;-71
2023/03/30 00:38:15;;;;;;;9.37;8.37;;;;;;;9.58;92.32;100698.25;6169686;28;20261;-71
2023/03/30 00:41:36;;;;;;;8.13;6.87;;;;;;;9.55;92.52;100701.19;6200787;28;20233;-71
2023/03/30 00:45:08;;;;;;;7.97;7.17;;;;;;;9.62;92.40;100696.09;6203206;28;20224;-71
2023/03/30 00:48:33;;;;;;;7.60;6.90;;;;;;;9.63;92.00;100679.31;6193802;28;20596;-71
2023/03/30 00:51:55;;;;;;;8.73;6.93;;;;;;;9.56;92.14;100676.50;6177196;28;20233;-70
2023/03/30 00:55:16;;;;;;;6.47;5.87;;;;;;;9.58;92.67;100668.44;6197016;28;20586;-71
2023/03/30 00:58:39;;;;;;;7.20;6.27;;;;;;;9.49;92.72;100658.88;6192193;28;20233;-71
2023/03/30 01:02:01;;;;;;;9.00;8.10;;;;;;;9.54;92.88;100640.75;6168736;28;20670;-70
2023/03/30 01:05:23;;;;;;;11.27;8.87;;;;;;;9.54;92.60;100640.75;6199563;28;20229;-70
2023/03/30 01:08:46;;;;;;;7.20;6.40;;;;;;;9.46;93.06;100633.72;6172059;28;20236;-71
2023/03/30 01:12:08;;;;;;;8.37;7.47;;;;;;;9.40;92.96;100623.81;6191780;28;20232;-71
2023/03/30 01:15:34;;;;;;;7.67;6.73;;;;;;;9.41;93.53;100619.38;6200309;28;20260;-69
2023/03/30 01:19:04;;;;;;;8.10;7.33;;;;;;;9.39;93.54;100613.47;6190457;28;20225;-71
2023/03/30 01:22:51;;;;;;;7.93;7.13;;;;;;;9.37;93.95;100610.16;6177397;28;20999;-71
2023/03/30 01:26:39;;;;;;;7.50;6.80;;;;;;;9.38;93.26;100596.00;6205649;28;20595;-70
2023/03/30 01:30:22;;;;;;;7.93;7.10;;;;;;;9.35;94.32;100596.34;6169710;28;20229;-70
2023/03/30 01:34:11;;;;;;;9.73;6.90;;;;;;;9.44;93.51;100596.16;6173531;28;20559;-71
2023/03/30 01:38:00;;;;;;;9.30;6.40;;;;;;;9.47;93.10;100584.47;6200615;28;20232;-70
2023/03/30 01:41:32;;;;;;;10.60;6.93;;;;;;;9.51;93.62;100591.03;6206344;28;20249;-71
2023/03/30 01:45:00;;;;;;;9.77;7.60;;;;;;;9.51;93.12;100588.41;6193796;28;20311;-70
2023/03/30 01:48:28;;;;;;;9.20;6.87;;;;;;;9.50;94.02;100577.03;6190325;28;20216;-70
2023/03/30 01:52:00;;;;;;;7.20;6.40;;;;;;;9.48;93.87;100563.25;6205237;28;20256;-71
2023/03/30 01:55:24;;;;;;;8.07;7.37;;;;;;;9.38;94.09;100551.22;6211133;28;20221;-70
2023/03/30 01:58:51;;;;;;;9.90;7.97;;;;;;;9.43;93.77;100549.75;6192235;28;20306;-71
2023/03/30 02:02:15;;;;;;;8.03;6.50;;;;;;;9.52;93.42;100555.78;6194861;28;20225;-70
2023/03/30 02:05:36;;;;;;;6.97;5.93;;;;;;;9.50;94.16;100552.50;6206888;28;20245;-70
2023/03/30 02:09:00;;;;;;;8.07;7.27;;;;;;;9.50;93.91;100534.88;6191701;28;20307;-71
2023/03/30 02:12:22;;;;;;;8.80;7.27;;;;;;;9.47;94.33;100523.88;6196836;28;20334;-71
2023/03/30 02:15:47;;;;;;;8.90;6.37;;;;;;;9.33;94.92;100514.84;6202230;28;20237;-71
2023/03/30 02:19:08;;;;;;;8.27;7.50;;;;;;;9.34;94.98;100494.59;6176412;28;20233;-70
2023/03/30 02:22:29;;;;;;;8.00;6.83;;;;;;;9.37;94.70;100502.16;6193479;28;20595;-71
2023/03/30 02:25:50;;;;;;;11.10;8.03;;;;;;;9.30;95.31;100496.75;6203975;28;20233;-71
2023/03/30 02:29:13;;;;;;;9.87;7.10;;;;;;;9.29;95.10;100486.38;6191660;28;20249;-70
2023/03/30 02:32:41;;;;;;;11.37;8.43;;;;;;;9.20;95.76;100488.22;6185637;28;20229;-70
2023/03/30 02:36:20;;;;;;;7.37;6.20;;;;;;;9.22;95.51;100488.88;6204252;28;20324;-71
2023/03/30 02:39:56;;;;;;;10.37;7.80;;;;;;;9.18;96.20;100475.22;6195764;28;20237;-71
2023/03/30 02:43:26;;;;;;;7.77;6.40;;;;;;;9.26;95.39;100461.22;6179465;28;20255;-71
2023/03/30 02:47:02;;;;;;;9.93;8.17;;;;;;;9.27;95.88;100463.66;6187623;28;20237;-71
2023/03/30 02:50:33;;;;;;;6.27;5.63;;;;;;;9.27;95.55;100458.41;6190313;28;20229;-71
2023/03/30 02:54:11;;;;;;;7.83;6.10;;;;;;;9.25;95.77;100449.06;6180818;28;20245;-70
2023/03/30 02:58:14;;;;;;;7.27;6.67;;;;;;;9.31;95.28;100444.88;6169831;28;20479;-71
2023/03/30 03:01:53;;;;;;;8.80;7.43;;;;;;;9.31;95.67;100434.34;6199719;28;20301;-71
2023/03/30 03:05:16;;;;;;;7.97;6.87;;;;;;;9.24;95.52;100427.16;6188548;28;20237;-70
2023/03/30 03:09:02;;;;;;;8.43;7.60;;;;;;;9.25;95.75;100414.81;6193185;28;20609;-70
2023/03/30 03:12:27;;;;;;;6.17;5.57;;;;;;;9.20;95.76;100420.59;6186790;28;20279;-69
2023/03/30 03:15:48;;;;;;;11.03;7.37;;;;;;;9.16;95.84;100411.38;6199589;28;20241;-71
2023/03/30 03:19:09;;;;;;;10.47;6.90;;;;;;;9.13;96.26;100403.81;6166881;28;20242;-71
2023/03/30 03:22:32;;;;;;;6.60;6.00;;;;;;;9.13;96.19;100395.09;6186216;28;20233;-70
2023/03/30 03:25:54;;;;;;;7.30;6.23;;;;;;;9.08;96.62;100390.31;6199804;28;20240;-71
2023/03/30 03:29:16;;;;;;;8.50;7.20;;;;;;;9.00;97.09;100384.28;6192888;28;20225;-70
2023/03/30 03:32:37;;;;;;;9.33;6.80;;;;;;;8.98;96.82;100371.28;6189272;28;20233;-70
2023/03/30 03:35:59;;;;;;;9.13;6.70;;;;;;;8.95;96.85;100366.38;6188369;28;20229;-70
2023/03/30 03:39:21;;;;;;;9.23;6.63;;;;;;;8.99;97.12;100361.59;6177052;28;20248;-70
2023/03/30 03:42:44;;;;;;;7.30;6.47;;;;;;;8.98;96.87;100362.56;6178353;28;20224;-70
2023/03/30 03:46:07;;;;;;;7.37;6.13;;;;;;;8.95;97.14;100369.00;6187721;28;20233;-70
2023/03/30 03:49:28;;;;;;;9.30;7.57;;;;;;;9.03;96.91;100374.25;6190948;28;20221;-70
2023/03/30 03:52:49;;;;;;;7.03;6.37;;;;;;;9.03;96.36;100350.56;6192146;28;20237;-70
2023/03/30 03:56:10;;;;;;;11.50;7.03;;;;;;;9.06;96.85;100350.19;6188234;28;20584;-70
2023/03/30 03:59:33;;;;;;;8.67;7.00;;;;;;;9.07;96.38;100351.00;6180379;28;20241;-70
2023/03/30 04:02:54;;;;;;;8.07;7.30;;;;;;;9.10;96.49;100354.13;6175719;28;20785;-70
2023/03/30 04:06:15;;;;;;;9.07;7.33;;;;;;;9.15;96.11;100333.38;6191573;28;20312;-71
2023/03/30 04:09:36;;;;;;;10.07;7.13;;;;;;;9.19;96.07;100331.22;6194059;28;20229;-70
2023/03/30 04:12:59;;;;;;;7.33;5.90;;;;;;;9.13;96.05;100326.63;6192105;28;20241;-70
2023/03/30 04:16:36;;;;;;;8.37;7.57;;;;;;;9.16;96.41;100321.84;6188887;28;20328;-70
2023/03/30 04:20:23;;;;;;;14.20;8.17;;;;;;;9.19;96.16;100318.06;6198250;28;20238;-71
2023/03/30 04:24:10;;;;;;;12.33;5.77;;;;;;;9.09;96.25;100327.97;6175773;28;20237;-71
2023/03/30 04:27:50;;;;;;;7.80;7.13;;;;;;;9.15;96.11;100307.03;6195047;28;20610;-70
2023/03/30 04:31:37;;;;;;;7.30;6.53;;;;;;;9.13;96.15;100311.66;6158297;28;20236;-70
2023/03/30 04:35:18;;;;;;;8.20;6.80;;;;;;;9.09;95.99;100296.38;6185724;28;20229;-70
2023/03/30 04:39:00;;;;;;;6.93;6.33;;;;;;;9.11;96.40;100294.38;6188721;28;20241;-70
2023/03/30 04:42:48;;;;;;;8.43;6.07;;;;;;;9.11;95.91;100289.13;6187780;28;20327;-70
2023/03/30 04:46:11;;;;;;;8.20;5.60;;;;;;;9.06;95.80;100286.19;6200713;28;20229;-70
2023/03/30 04:50:01;;;;;;;7.47;6.70;;;;;;;9.03;96.27;100274.22;6190416;28;20237;-70
2023/03/30 04:53:55;;;;;;;11.13;6.30;;;;;;;9.09;96.04;100270.03;6160744;28;20229;-71
2023/03/30 04:57:51;;;;;;;8.57;7.47;;;;;;;9.13;95.86;100276.63;6194446;28;20340;-69
2023/03/30 05:01:38;;;;;;;6.43;5.83;;;;;;;9.10;95.85;100271.69;6185093;28;20555;-69
2023/03/30 05:05:13;;;;;;;7.00;6.27;;;;;;;9.13;95.69;100266.91;6203710;28;20512;-71
2023/03/30 05:08:53;;;;;;;7.47;6.53;;;;;;;9.10;95.75;100259.34;6194660;28;20487;-70
2023/03/30 05:12:36;;;;;;;8.50;6.93;;;;;;;9.17;95.74;100257.66;6161055;28;20241;-70
2023/03/30 05:16:21;;;;;;;8.43;7.63;;;;;;;9.26;95.58;100245.28;6196698;28;20241;-70
2023/03/30 05:20:01;;;;;;;7.40;6.37;;;;;;;9.23;95.96;100261.44;6173269;28;20225;-70
2023/03/30 05:23:39;;;;;;;7.33;6.63;;;;;;;9.21;95.48;100250.25;6187085;28;20280;-70
2023/03/30 05:27:13;;;;;;;13.37;6.23;;;;;;;9.33;95.35;100248.84;6196203;28;20315;-70
2023/03/30 05:30:55;;;;;;;7.50;6.07;;;;;;;9.34;95.39;100241.75;6198416;28;20224;-70
2023/03/30 05:34:34;;;;;;;6.73;6.10;;;;;;;9.37;94.65;100239.59;6168680;28;20615;-70
2023/03/30 05:38:14;;;;;;;8.30;6.33;;;;;;;9.43;94.75;100240.72;6190978;28;20799;-69
2023/03/30 05:41:46;;;;;;;5.90;5.27;;;;;;;9.45;94.88;100223.75;6192881;28;20251;-70
2023/03/30 05:45:26;;;;;;;6.27;5.70;;;;;;;9.49;94.35;100238.19;6200518;28;20677;-68
2023/03/30 05:49:02;;;;;;;7.00;5.80;;;;;;;9.51;94.32;100245.91;6164707;28;20256;-70
2023/03/30 05:52:35;;;;;;;7.20;6.57;;;;;;;9.57;94.19;100253.94;6146584;28;1045123;-70
2023/03/30 05:56:06;;;;;;;6.23;4.63;;;;;;;9.58;94.13;100260.84;6198454;28;20937;-69
2023/03/30 05:59:54;;;;;;;5.57;5.00;;;;;;;9.65;93.99;100270.69;6157683;28;20607;-70
2023/03/30 06:03:33;;;;;;;7.90;6.57;;;;;;;9.73;94.35;100265.34;6182302;28;20225;-69
2023/03/30 06:06:53;;;;;;;9.60;5.30;;;;;;;9.79;94.63;100269.91;6199518;28;20277;-68
2023/03/30 06:10:15;;;;;;;5.00;3.80;;;;;;;9.85;94.81;100256.84;6178240;28;20229;-70
2023/03/30 06:13:37;;;;;;;6.37;5.17;;;;;;;9.89;94.82;100237.03;6172215;28;20326;-70
2023/03/30 06:17:00;;;;;;;8.90;5.43;;;;;;;9.92;94.91;100228.78;6189337;28;20273;-68
2023/03/30 06:20:23;;;;;;;9.40;6.33;;;;;;;10.00;95.39;100221.75;6175165;28;20229;-69
2023/03/30 06:23:45;;;;;;;10.57;6.37;;;;;;;10.12;94.98;100212.44;6158042;28;20827;-70
2023/03/30 06:27:11;;;;;;;14.33;6.83;;;;;;;10.20;94.97;100205.25;6157496;28;20237;-70
2023/03/30 06:30:32;;;;;;;6.57;6.00;;;;;;;10.22;94.89;100213.81;6178570;28;20225;-69
2023/03/30 06:34:00;;;;;;;5.77;4.77;;;;;;;10.23;94.84;100218.09;6158301;28;20630;-69
2023/03/30 06:37:22;;;;;;;6.33;5.73;;;;;;;10.35;94.89;100221.13;6161959;28;20241;-70
2023/03/30 06:40:43;;;;;;;6.30;4.53;;;;;;;10.45;94.56;100216.34;6189827;28;20994;-70
2023/03/30 06:44:05;;;;;;;5.57;4.30;;;;;;;10.49;94.45;100216.81;6185820;28;20229;-70
2023/03/30 06:47:28;;;;;;;5.80;5.30;;;;;;;10.35;94.99;100218.47;6188787;28;20649;-69
2023/03/30 06:50:52;;;;;;;6.60;4.73;;;;;;;10.43;94.94;100221.00;6191976;28;20228;-70
2023/03/30 06:54:18;;;;;;;11.30;5.43;;;;;;;10.52;94.51;100208.53;6174669;28;20241;-69
2023/03/30 06:57:45;;;;;;;9.40;4.73;;;;;;;10.74;94.29;100219.97;6183993;28;20505;-70
2023/03/30 07:01:10;;;;;;;8.30;5.00;;;;;;;10.89;93.79;100215.47;6187069;28;20260;-70
2023/03/30 07:04:52;;;;;;;7.43;4.73;;;;;;;11.04;93.34;100202.25;6192269;28;20233;-68
2023/03/30 07:08:30;;;;;;;4.70;4.07;;;;;;;11.33;92.35;100210.03;6177359;28;20237;-68
2023/03/30 07:11:52;;;;;;;9.53;5.77;;;;;;;11.27;92.17;100202.91;6185180;28;20237;-69
2023/03/30 07:15:14;;;;;;;8.80;4.43;;;;;;;11.39;91.44;100205.84;6193210;28;20687;-69
2023/03/30 07:18:35;;;;;;;9.43;5.27;;;;;;;11.59;89.94;100207.66;6176778;28;20233;-67
2023/03/30 07:21:56;;;;;;;5.80;4.03;;;;;;;11.66;89.87;100207.72;6163855;28;20248;-71
2023/03/30 07:25:21;;;;;;;4.77;4.10;;;;;;;11.64;88.41;100212.38;6163770;28;20233;-70
2023/03/30 07:28:44;;;;;;;5.20;3.13;;;;;;;11.68;88.40;100204.88;6178198;28;20233;-70
2023/03/30 07:32:05;;;;;;;4.60;3.53;;;;;;;11.74;87.56;100210.22;6183540;28;20225;-71
2023/03/30 07:35:26;;;;;;;3.87;3.00;;;;;;;11.81;87.73;100205.81;6200924;28;20229;-70
2023/03/30 07:38:50;;;;;;;14.47;3.20;;;;;;;11.79;87.47;100207.84;6191316;28;20240;-70
2023/03/30 07:42:13;;;;;;;4.00;3.27;;;;;;;11.89;86.76;100204.88;6179611;28;20328;-69
2023/03/30 07:45:34;;;;;;;5.30;4.07;;;;;;;12.04;87.08;100204.75;6178695;28;20891;-69
2023/03/30 07:48:56;;;;;;;4.23;3.80;;;;;;;12.07;85.54;100199.91;6187500;28;20234;-69
2023/03/30 07:52:18;;;;;;;5.83;5.20;;;;;;;12.01;86.72;100194.56;6178738;28;20627;-71
2023/03/30 07:55:44;;;;;;;4.87;3.23;;;;;;;12.01;86.55;100207.78;6181011;28;20229;-71
2023/03/30 07:59:23;;;;;;;6.17;2.80;;;;;;;12.14;85.84;100205.25;6191642;28;20606;-69
2023/03/30 08:02:45;;;;;;;5.03;1.93;;;;;;;12.21;85.15;100217.47;6175642;28;20248;-70
2023/03/30 08:06:09;;;;;;;5.67;2.93;;;;;;;12.32;83.63;100235.47;6181343;28;20237;-70
2023/03/30 08:09:34;;;;;;;6.00;2.53;;;;;;;12.46;83.33;100224.94;6167842;28;20332;-69
2023/03/30 08:12:55;;;;;;;7.07;2.57;;;;;;;12.60;82.70;100219.53;6144564;28;20674;-71
2023/03/30 08:16:18;;;;;;;2.20;1.93;;;;;;;12.66;82.85;100220.56;6189273;28;20240;-70
2023/03/30 08:19:39;;;;;;;3.83;2.10;;;;;;;12.52;83.62;100225.00;6190671;28;20229;-70
2023/03/30 08:23:00;;;;;;;3.07;2.43;;;;;;;12.54;83.46;100228.25;6188989;28;20229;-70
2023/03/30 08:26:21;;;;;;;5.20;2.97;;;;;;;12.61;83.83;100223.81;6204291;28;20336;-69
2023/03/30 08:29:42;;;;;;;4.73;2.40;;;;;;;12.72;83.64;100230.38;6189518;28;20236;-69
2023/03/30 08:33:04;;;;;;;2.43;2.23;;;;;;;12.96;82.05;100221.91;6177576;28;20618;-69
2023/03/30 08:36:26;;;;;;;4.77;3.47;;;;;;;13.17;81.62;100225.47;6191130;28;20472;-70
2023/03/30 08:39:46;;;;;;;3.43;2.67;;;;;;;12.89;83.40;100226.34;6180472;28;20249;-70
2023/03/30 08:43:20;;;;;;;2.83;2.10;;;;;;;12.72;85.42;100213.66;6161431;28;20229;-70
2023/03/30 08:46:43;;;;;;;7.07;2.63;;;;;;;12.71;84.95;100215.50;6187273;28;20253;-69
2023/03/30 08:50:11;;;;;;;5.37;2.10;;;;;;;12.84;83.99;100207.63;6185199;28;20256;-68
2023/03/30 08:53:33;;;;;;;2.97;2.17;;;;;;;13.04;84.08;100196.25;6183515;28;20252;-67
2023/03/30 08:57:03;;;;;;;2.20;2.00;;;;;;;13.25;83.07;100199.59;6193756;28;20236;-69
2023/03/30 09:00:32;;;;;;;7.00;2.43;;;;;;;13.26;82.62;100209.19;6186594;28;20320;-68
2023/03/30 09:04:08;;;;;;;3.07;2.33;;;;;;;13.19;83.12;100191.63;6169231;28;20248;-69
2023/03/30 09:07:37;;;;;;;3.27;2.43;;;;;;;13.57;81.53;100191.84;6191853;28;20229;-69
2023/03/30 09:11:00;;;;;;;3.40;1.93;;;;;;;13.92;80.15;100179.22;6197561;28;20236;-69
2023/03/30 09:14:32;;;;;;;4.40;3.50;;;;;;;14.08;79.74;100181.41;6187915;28;20237;-69
2023/03/30 09:17:59;;;;;;;2.37;2.17;;;;;;;14.00;79.33;100163.91;6171796;28;20229;-68
2023/03/30 09:21:25;;;;;;;4.63;2.40;;;;;;;14.30;79.03;100179.31;6199568;28;20530;-70
2023/03/30 09:24:50;;;;;;;2.60;2.30;;;;;;;14.57;77.58;100172.09;6186648;28;20504;-69
2023/03/30 09:28:17;;;;;;;2.70;2.50;;;;;;;14.00;79.45;100186.97;6181786;28;20753;-69
2023/03/30 09:31:40;;;;;;;2.17;1.97;;;;;;;13.87;80.09;100187.78;6190611;28;20229;-70
2023/03/30 09:35:06;;;;;;;3.40;2.30;;;;;;;13.82;80.41;100178.78;6161866;28;20324;-70
2023/03/30 09:38:27;;;;;;;3.83;2.73;;;;;;;13.71;80.14;100190.03;6182356;28;20549;-70
2023/03/30 09:42:03;;;;;;;2.87;1.90;;;;;;;13.68;80.56;100192.06;6191710;28;20233;-69
2023/03/30 09:45:28;;;;;;;7.23;2.97;;;;;;;13.69;80.70;100198.19;6189549;28;20321;-69
2023/03/30 09:48:50;;;;;;;4.03;2.47;;;;;;;13.83;79.14;100207.78;6182218;28;20647;-69
2023/03/30 09:52:20;;;;;;;6.83;2.10;;;;;;;13.94;79.39;100188.59;6188732;28;20559;-70
2023/03/30 09:55:41;;;;;;;3.10;2.13;;;;;;;14.00;78.48;100190.44;6206170;28;20233;-69
2023/03/30 09:59:21;;;;;;;4.27;3.93;;;;;;;14.44;76.45;100186.25;6186283;28;21040;-71
2023/03/30 10:02:55;;;;;;;2.70;2.50;;;;;;;14.92;74.48;100173.34;6192494;28;21097;-71
2023/03/30 10:06:18;;;;;;;6.47;3.00;;;;;;;14.69;75.36;100165.91;6205556;28;20233;-72
2023/03/30 10:09:44;;;;;;;4.80;2.33;;;;;;;14.86;74.56;100170.75;6194290;28;20316;-71
2023/03/30 10:13:08;;;;;;;3.63;2.13;;;;;;;14.95;73.30;100177.44;6202136;28;20225;-72
2023/03/30 10:16:32;;;;;;;3.40;3.10;;;;;;;15.22;72.69;100167.44;6207409;28;20717;-71
2023/03/30 10:19:54;;;;;;;2.33;1.57;;;;;;;15.44;66.67;100155.41;6197928;28;20654;-71
2023/03/30 10:23:17;;;;;;;2.77;2.57;;;;;;;15.11;66.47;100147.69;6191163;28;20249;-71
2023/03/30 10:26:42;;;;;;;2.03;1.93;;;;;;;14.92;65.67;100165.38;6208318;28;20225;-70
2023/03/30 10:30:09;;;;;;;1.93;1.80;;;;;;;15.21;64.07;100160.50;6211543;28;20719;-71
2023/03/30 10:33:39;;;;;;;1.70;1.60;;;;;;;15.21;62.99;100161.31;6192657;28;20237;-70
2023/03/30 10:37:00;;;;;;;3.13;1.80;;;;;;;15.43;62.24;100155.63;6202857;28;20311;-71
2023/03/30 10:40:26;;;;;;;3.03;1.87;;;;;;;15.27;62.44;100147.16;6194868;28;20233;-71
2023/03/30 10:43:48;;;;;;;7.13;1.83;;;;;;;15.29;62.85;100152.28;6186024;28;20234;-68
2023/03/30 10:47:26;;;;;;;2.27;2.07;;;;;;;15.07;63.73;100158.97;6186409;28;20232;-68
2023/03/30 10:50:56;;;;;;;3.90;2.20;;;;;;;15.29;63.15;100166.38;6197364;28;20232;-70
2023/03/30 10:54:26;;;;;;;1.80;1.70;;;;;;;15.46;63.05;100144.56;6199383;28;20521;-69
2023/03/30 10:57:58;;;;;;;1.40;1.30;;;;;;;15.31;61.95;100144.91;6195158;28;20310;-68
2023/03/30 11:01:25;;;;;;;2.63;2.10;;;;;;;15.15;61.18;100142.75;6184164;28;20257;-68
2023/03/30 11:04:49;;;;;;;4.80;1.57;;;;;;;14.99;61.15;100150.22;6189847;28;20876;-70
2023/03/30 11:08:17;;;;;;;2.80;1.77;;;;;;;14.95;60.75;100167.59;6178347;28;20244;-71
2023/03/30 11:11:40;;;;;;;5.77;2.07;;;;;;;15.02;60.56;100167.59;6198640;28;20753;-69
2023/03/30 11:15:06;;;;;;;3.43;2.20;;;;;;;14.95;59.95;100193.38;6166186;28;20769;-71
2023/03/30 11:18:30;;;;;;;3.00;1.43;;;;;;;14.95;59.59;100169.44;6177058;28;20240;-70
2023/03/30 11:22:00;;;;;;;2.83;1.70;;;;;;;15.17;59.67;100170.75;6198586;28;20236;-72
2023/03/30 11:25:27;;;;;;;4.63;2.33;;;;;;;15.64;58.83;100164.06;6202104;28;20586;-71
2023/03/30 11:29:00;;;;;;;2.07;1.87;;;;;;;16.11;56.66;100169.78;6180742;28;20607;-70
2023/03/30 11:32:30;;;;;;;2.97;1.70;;;;;;;17.05;53.33;100179.91;6185266;28;20302;-70
2023/03/30 11:35:55;;;;;;;2.63;1.63;;;;;;;16.47;54.84;100171.63;6194452;28;20233;-71
2023/03/30 11:39:23;;;;;;;1.03;0.90;;;;;;;17.07;52.21;100156.50;6170034;28;20239;-71
2023/03/30 11:42:47;;;;;;;5.90;0.87;;;;;;;17.14;51.38;100155.59;6187881;28;20229;-72
2023/03/30 11:46:16;;;;;;;3.83;1.80;;;;;;;16.38;52.69;100168.44;6162372;28;20954;-70
2023/03/30 11:49:59;;;;;;;2.23;2.03;;;;;;;16.44;51.39;100161.41;6164096;28;20630;-69
2023/03/30 11:53:28;;;;;;;1.17;0.80;;;;;;;16.63;50.13;100152.38;6170609;28;20233;-69
2023/03/30 11:56:55;;;;;;;3.27;1.17;;;;;;;17.66;47.74;100161.94;6181756;28;20253;-69
2023/03/30 12:00:31;;;;;;;0.60;0.60;;;;;;;17.76;46.99;100149.66;6167772;28;20232;-68
2023/03/30 12:03:56;;;;;;;1.20;1.00;;;;;;;16.26;52.28;100164.09;6165404;28;20241;-68
2023/03/30 12:07:31;;;;;;;1.43;0.93;;;;;;;15.52;54.20;100159.66;6173105;28;20233;-66
2023/03/30 12:10:59;;;;;;;4.97;1.93;;;;;;;15.30;55.90;100157.38;6207611;28;20229;-67
2023/03/30 12:14:41;;;;;;;1.07;0.93;;;;;;;15.50;56.34;100173.19;6196686;28;20240;-68
2023/03/30 12:18:15;;;;;;;2.50;1.03;;;;;;;15.22;57.30;100176.25;6192292;28;20259;-67
2023/03/30 12:21:41;;;;;;;3.60;2.70;;;;;;;14.87;59.56;100197.13;6187018;28;20956;-68
2023/03/30 12:25:13;;;;;;;1.83;1.70;;;;;;;14.24;65.20;100252.63;6186834;28;20264;-69
2023/03/30 12:28:45;;;;;;;10.03;1.87;;;;;;;12.83;76.64;100237.78;6173775;28;20253;-69
2023/03/30 12:32:19;;;;;;;4.67;1.97;;;;;;;12.97;76.81;100238.63;6186352;28;20570;-71
2023/03/30 12:35:59;;;;;;;3.07;2.23;;;;;;;13.25;75.75;100242.00;6197948;28;20263;-71
2023/03/30 12:39:25;;;;;;;8.57;2.13;;;;;;;13.33;73.67;100238.31;6179442;28;20228;-68
2023/03/30 12:42:53;;;;;;;3.87;2.23;;;;;;;13.46;73.93;100232.25;6191290;28;20233;-69
2023/03/30 12:46:24;;;;;;;1.60;1.50;;;;;;;14.10;70.26;100228.97;6200636;28;20221;-70
2023/03/30 12:49:58;;;;;;;3.77;2.00;;;;;;;15.19;65.89;100232.50;6186448;28;20236;-69
2023/03/30 12:53:44;;;;;;;2.90;2.03;;;;;;;16.45;63.05;100234.16;6195407;28;20236;-69
2023/03/30 12:57:16;;;;;;;9.80;2.53;;;;;;;18.66;53.27;100233.91;6187595;28;20225;-69
2023/03/30 13:00:52;;;;;;;9.23;2.07;;;;;;;15.20;63.37;100231.47;6166240;28;20232;-68
2023/03/30 13:04:16;;;;;;;5.40;2.00;;;;;;;14.22;66.79;100235.31;6163952;28;20233;-74
2023/03/30 13:07:40;;;;;;;2.90;2.13;;;;;;;14.52;66.02;100244.44;6168990;28;20224;-71
2023/03/30 13:11:23;;;;;;;8.17;3.20;;;;;;;18.83;52.19;100225.94;6181207;28;20237;-69
2023/03/30 13:14:46;;;;;;;4.73;2.13;;;;;;;15.93;58.90;100226.47;6176820;28;20240;-71
2023/03/30 13:18:41;;;;;;;5.47;1.53;;;;;;;14.52;63.00;100228.50;6170554;28;20233;-69
2023/03/30 13:22:19;;;;;;;4.47;2.77;;;;;;;14.53;62.21;100222.16;6172761;28;20228;-70
2023/03/30 13:25:45;;;;;;;3.37;1.90;;;;;;;14.38;63.59;100242.81;6186931;28;20229;-70
2023/03/30 13:29:10;;;;;;;3.07;1.87;;;;;;;14.20;61.12;100224.88;6176392;28;21089;-72
2023/03/30 13:32:54;;;;;;;3.60;1.93;;;;;;;14.36;59.74;100237.72;6175869;28;20663;-70
2023/03/30 13:36:20;;;;;;;7.07;2.80;;;;;;;14.17;58.20;100245.72;6192661;28;20240;-71
2023/03/30 13:39:51;;;;;;;3.40;2.57;;;;;;;16.92;49.34;100236.09;6179232;28;20988;-71
2023/03/30 13:43:21;;;;;;;1.63;1.27;;;;;;;20.96;37.88;100235.47;6183061;28;20256;-70
2023/03/30 13:46:51;;;;;;;5.30;2.77;;;;;;;16.69;46.69;100238.63;6198493;28;20252;-68
2023/03/30 13:50:20;;;;;;;2.57;1.80;;;;;;;15.33;51.84;100242.03;6189802;28;20224;-69
2023/03/30 13:53:46;;;;;;;3.43;1.70;;;;;;;15.75;51.06;100244.22;6181301;28;20245;-68
2023/03/30 13:57:10;;;;;;;3.67;1.97;;;;;;;15.24;52.52;100251.28;6185507;28;20229;-68
2023/03/30 14:00:42;;;;;;;3.33;1.57;;;;;;;14.75;54.65;100238.63;6195255;28;20261;-69
2023/03/30 14:04:04;;;;;;;2.20;1.40;;;;;;;14.90;54.32;100238.41;6184491;28;20320;-69
2023/03/30 14:07:29;;;;;;;2.30;1.50;;;;;;;14.96;53.22;100248.16;6186568;28;21144;-69
2023/03/30 14:10:52;;;;;;;1.97;1.30;;;;;;;14.87;52.40;100236.97;6190063;28;20544;-70
2023/03/30 14:14:22;;;;;;;1.40;1.00;;;;;;;14.95;51.17;100246.53;6182152;28;20256;-69
2023/03/30 14:17:48;;;;;;;2.30;1.70;;;;;;;14.62;50.91;100250.13;6181615;28;20230;-70
2023/03/30 14:21:15;;;;;;;2.90;1.83;;;;;;;14.63;51.28;100246.47;6194834;28;20237;-69
2023/03/30 14:24:36;;;;;;;1.73;1.63;;;;;;;14.80;51.38;100245.97;6186734;28;20233;-72
2023/03/30 14:28:01;;;;;;;1.87;1.70;;;;;;;14.43;52.36;100236.91;6175518;28;20230;-72
2023/03/30 14:31:22;;;;;;;2.37;1.33;;;;;;;14.70;52.71;100249.88;6193915;28;20309;-69
2023/03/30 14:34:46;;;;;;;7.17;2.23;;;;;;;14.85;51.46;100227.56;6182825;28;20233;-70
2023/03/30 14:38:13;;;;;;;4.63;2.03;;;;;;;15.64;49.67;100221.78;6189169;28;20229;-69
2023/03/30 14:41:34;;;;;;;3.30;1.80;;;;;;;17.24;45.23;100223.34;6189651;28;20327;-70
2023/03/30 14:44:57;;;;;;;4.70;2.17;;;;;;;17.27;44.20;100240.75;6186943;28;20233;-69
2023/03/30 14:48:26;;;;;;;6.90;0.90;;;;;;;17.66;44.24;100229.50;6193145;28;20246;-71
2023/03/30 14:51:49;;;;;;;3.80;1.92;;;;;;;16.69;45.69;100234.13;6199097;28;20510;-68
2023/03/30 14:55:18;;;;;;;4.27;1.43;;;;;;;16.37;46.72;100236.06;6204951;28;20229;-72
2023/03/30 14:58:39;;;;;;;3.50;1.43;;;;;;;15.66;47.87;100223.22;6189065;28;20225;-67
2023/03/30 15:02:02;;;;;;;1.23;0.90;;;;;;;15.30;49.20;100236.34;6198685;28;20233;-69
2023/03/30 15:05:26;;;;;;;7.00;1.63;;;;;;;15.44;49.73;100221.91;6207637;28;20338;-68
2023/03/30 15:08:47;;;;;;;3.37;1.10;;;;;;;15.09;50.64;100234.00;6196721;28;20555;-70
2023/03/30 15:12:20;;;;;;;4.53;1.30;;;;;;;15.06;51.59;100227.25;6197106;28;20311;-69
2023/03/30 15:15:41;;;;;;;2.53;1.53;;;;;;;15.02;51.56;100247.31;6201456;28;20267;-72
2023/03/30 15:19:05;;;;;;;4.17;1.47;;;;;;;14.73;52.19;100226.59;6196795;28;20926;-71
2023/03/30 15:22:30;;;;;;;5.50;1.80;;;;;;;15.00;52.55;100228.91;6198655;28;20233;-71
2023/03/30 15:25:56;;;;;;;3.50;1.90;;;;;;;15.65;50.49;100212.78;6205292;28;20237;-69
2023/03/30 15:29:19;;;;;;;3.80;1.63;;;;;;;15.71;49.78;100222.56;6181616;28;20234;-71
2023/03/30 15:32:41;;;;;;;6.07;2.30;;;;;;;15.62;50.43;100218.53;6173936;28;20244;-70
2023/03/30 15:36:06;;;;;;;1.90;1.60;;;;;;;15.59;50.51;100221.66;6191684;28;20252;-71
2023/03/30 15:39:32;;;;;;;9.87;1.63;;;;;;;15.27;51.32;100223.47;6191707;28;20390;-71
2023/03/30 15:43:12;;;;;;;1.23;1.13;;;;;;;15.12;51.76;100242.38;6190111;28;20232;-71
2023/03/30 15:46:35;;;;;;;2.87;1.13;;;;;;;14.65;55.93;100267.50;6166965;28;20241;-71
2023/03/30 15:49:56;;;;;;;2.40;1.20;;;;;;;14.52;59.82;100284.28;6181844;28;20232;-71
2023/03/30 15:53:23;;;;;;;2.10;1.27;;;;;;;14.30;63.54;100245.69;6184042;28;20221;-70
2023/03/30 15:56:48;;;;;;;2.10;1.33;;;;;;;13.71;63.96;100249.22;6203851;28;20225;-71
2023/03/30 16:00:15;;;;;;;3.20;1.47;;;;;;;13.74;63.74;100248.00;6182472;28;20233;-71
2023/03/30 16:03:40;;;;;;;2.13;1.37;;;;;;;14.11;62.72;100246.53;6190141;28;20244;-71
2023/03/30 16:07:01;;;;;;;2.73;1.40;;;;;;;14.42;62.08;100252.03;6192080;28;20225;-70
2023/03/30 16:10:25;;;;;;;1.70;1.33;;;;;;;14.60;61.87;100257.50;6189381;28;20229;-73